sensor_id;sensor_type;location;lat;lon;timestamp;pressure;altitude;pressure_sealevel;temperature;humidity
68489;BME280;55481;48.764;8.936;2023-08-01T00:03:49;96040;;;17.5;71
68489;BME280;55481;48.764;8.936;2023-08-01T00:06:21;96040;;;17.5;71
68489;BME280;55481;48.764;8.936;2023-08-01T00:08:51;96040;;;17.5;71
68489;BME280;55481;48.764;8.936;2023-08-01T00:11:21;96040;;;17.4;71
68489;BME280;55481;48.764;8.936;2023-08-01T00:13:59;96040;;;17.5;71
68489;BME280;55481;48.764;8.936;2023-08-01T00:16:32;96030;;;17.5;71
68489;BME280;55481;48.764;8.936;2023-08-01T00:19:01;96030;;;17.5;71
68489;BME280;55481;48.764;8.936;2023-08-01T00:21:32;96020;;;17.5;71
68489;BME280;55481;48.764;8.936;2023-08-01T00:24:03;96020;;;17.5;71
68489;BME280;55481;48.764;8.936;2023-08-01T00:26:40;96010;;;17.5;71
68489;BME280;55481;48.764;8.936;2023-08-01T00:29:13;96000;;;17.5;71
68489;BME280;55481;48.764;8.936;2023-08-01T00:34:07;96000;;;17.6;71.5
68489;BME280;55481;48.764;8.936;2023-08-01T00:36:57;95990;;;17.5;71.5
68489;BME280;55481;48.764;8.936;2023-08-01T00:41:44;95990;;;17.5;71.5
68489;BME280;55481;48.764;8.936;2023-08-01T00:44:15;95980;;;17.3;71.5
68489;BME280;55481;48.764;8.936;2023-08-01T00:46:38;95980;;;17.3;72
68489;BME280;55481;48.764;8.936;2023-08-01T00:49:09;95980;;;17.2;72
68489;BME280;55481;48.764;8.936;2023-08-01T00:51:47;95980;;;17.2;72
68489;BME280;55481;48.764;8.936;2023-08-01T00:56:42;95960;;;17.3;71.5
68489;BME280;55481;48.764;8.936;2023-08-01T01:01:50;95970;;;17.3;71.5
68489;BME280;55481;48.764;8.936;2023-08-01T01:04:21;95960;;;17.3;72
68489;BME280;55481;48.764;8.936;2023-08-01T01:06:51;95960;;;17.3;71.5
68489;BME280;55481;48.764;8.936;2023-08-01T01:09:20;95960;;;17.3;71.5
68489;BME280;55481;48.764;8.936;2023-08-01T01:11:51;95960;;;17.3;72
68489;BME280;55481;48.764;8.936;2023-08-01T01:14:28;95960;;;17.2;72
68489;BME280;55481;48.764;8.936;2023-08-01T01:17:04;95950;;;17.3;72
68489;BME280;55481;48.764;8.936;2023-08-01T01:21:52;95950;;;17.3;72
68489;BME280;55481;48.764;8.936;2023-08-01T01:24:16;95930;;;17.3;72
68489;BME280;55481;48.764;8.936;2023-08-01T01:26:46;95930;;;17.2;72
68489;BME280;55481;48.764;8.936;2023-08-01T01:31:43;95910;;;16.6;73.5
68489;BME280;55481;48.764;8.936;2023-08-01T01:36:43;95910;;;16.6;73.5
68489;BME280;55481;48.764;8.936;2023-08-01T01:39:17;95900;;;16.6;73.5
68489;BME280;55481;48.764;8.936;2023-08-01T01:41:45;95900;;;16.7;73
68489;BME280;55481;48.764;8.936;2023-08-01T01:44:16;95880;;;16.7;73
68489;BME280;55481;48.764;8.936;2023-08-01T01:49:27;95880;;;16.7;73
68489;BME280;55481;48.764;8.936;2023-08-01T01:51:54;95860;;;16.8;73
68489;BME280;55481;48.764;8.936;2023-08-01T01:54:37;95860;;;16.8;72.5
68489;BME280;55481;48.764;8.936;2023-08-01T01:59:34;95870;;;16.8;72.5
68489;BME280;55481;48.764;8.936;2023-08-01T02:02:04;95870;;;16.8;73
68489;BME280;55481;48.764;8.936;2023-08-01T02:04:34;95860;;;16.8;73
68489;BME280;55481;48.764;8.936;2023-08-01T02:09:32;95850;;;16.9;72.5
68489;BME280;55481;48.764;8.936;2023-08-01T02:11:59;95860;;;16.9;72.5
68489;BME280;55481;48.764;8.936;2023-08-01T02:14:37;95860;;;16.9;72.5
68489;BME280;55481;48.764;8.936;2023-08-01T02:19:39;95860;;;17;72.5
68489;BME280;55481;48.764;8.936;2023-08-01T02:24:40;95870;;;17;72.5
68489;BME280;55481;48.764;8.936;2023-08-01T02:27:10;95870;;;17.1;72.5
68489;BME280;55481;48.764;8.936;2023-08-01T02:32:04;95880;;;17.1;72.5
68489;BME280;55481;48.764;8.936;2023-08-01T02:34:42;95870;;;17.1;72.5
68489;BME280;55481;48.764;8.936;2023-08-01T02:39:37;95840;;;17.1;72.5
68489;BME280;55481;48.764;8.936;2023-08-01T02:44:45;95850;;;17.1;72.5
68489;BME280;55481;48.764;8.936;2023-08-01T02:47:16;95830;;;17.2;72.5
68489;BME280;55481;48.764;8.936;2023-08-01T02:52:10;95850;;;17.3;72.5
68489;BME280;55481;48.764;8.936;2023-08-01T02:54:41;95850;;;17.3;72.5
68489;BME280;55481;48.764;8.936;2023-08-01T03:09:38;95830;;;17.4;72.5
68489;BME280;55481;48.764;8.936;2023-08-01T03:12:09;95830;;;17.4;72.5
68489;BME280;55481;48.764;8.936;2023-08-01T03:14:40;95820;;;17.5;72.5
68489;BME280;55481;48.764;8.936;2023-08-01T03:17:12;95820;;;17.5;72.5
68489;BME280;55481;48.764;8.936;2023-08-01T03:19:42;95820;;;17.6;72
68489;BME280;55481;48.764;8.936;2023-08-01T03:24:56;95820;;;17.6;72
68489;BME280;55481;48.764;8.936;2023-08-01T03:27:26;95820;;;17.7;72
68489;BME280;55481;48.764;8.936;2023-08-01T03:30:01;95820;;;17.8;72
68489;BME280;55481;48.764;8.936;2023-08-01T03:32:32;95820;;;17.8;72
68489;BME280;55481;48.764;8.936;2023-08-01T03:37:21;95820;;;17.7;72
68489;BME280;55481;48.764;8.936;2023-08-01T03:39:52;95830;;;17.7;72.5
68489;BME280;55481;48.764;8.936;2023-08-01T03:42:23;95820;;;17.6;72.5
68489;BME280;55481;48.764;8.936;2023-08-01T03:44:57;95830;;;17.6;72.5
68489;BME280;55481;48.764;8.936;2023-08-01T03:47:25;95830;;;17.6;72.5
68489;BME280;55481;48.764;8.936;2023-08-01T03:49:56;95830;;;17.6;72.5
68489;BME280;55481;48.764;8.936;2023-08-01T03:54:57;95820;;;17.6;72.5
68489;BME280;55481;48.764;8.936;2023-08-01T03:57:30;95810;;;17.7;72.5
68489;BME280;55481;48.764;8.936;2023-08-01T04:00:00;95800;;;17.7;72.5
68489;BME280;55481;48.764;8.936;2023-08-01T04:02:30;95790;;;17.7;72.5
68489;BME280;55481;48.764;8.936;2023-08-01T04:05:01;95760;;;17.8;72.5
68489;BME280;55481;48.764;8.936;2023-08-01T04:10:03;95730;;;17.6;72.5
68489;BME280;55481;48.764;8.936;2023-08-01T04:12:36;95720;;;17.6;72.5
68489;BME280;55481;48.764;8.936;2023-08-01T04:15:11;95710;;;17.4;73
68489;BME280;55481;48.764;8.936;2023-08-01T04:17:36;95700;;;17.4;73
68489;BME280;55481;48.764;8.936;2023-08-01T04:20:07;95680;;;17.3;73.5
68489;BME280;55481;48.764;8.936;2023-08-01T04:22:39;95660;;;17.3;73
68489;BME280;55481;48.764;8.936;2023-08-01T04:25:09;95640;;;17.4;73
68489;BME280;55481;48.764;8.936;2023-08-01T04:30:12;95630;;;17.4;73
68489;BME280;55481;48.764;8.936;2023-08-01T04:32:48;95600;;;17.4;73
68489;BME280;55481;48.764;8.936;2023-08-01T04:35:19;95590;;;17.5;72.5
68489;BME280;55481;48.764;8.936;2023-08-01T04:37:42;95600;;;17.5;73
68489;BME280;55481;48.764;8.936;2023-08-01T04:40:13;95610;;;17.6;73
68489;BME280;55481;48.764;8.936;2023-08-01T04:42:44;95630;;;17.6;72.5
68489;BME280;55481;48.764;8.936;2023-08-01T04:45:15;95640;;;17.6;73
68489;BME280;55481;48.764;8.936;2023-08-01T04:50:10;95650;;;17.8;72.5
68489;BME280;55481;48.764;8.936;2023-08-01T04:52:40;95660;;;17.8;72.5
68489;BME280;55481;48.764;8.936;2023-08-01T04:55:11;95660;;;17.8;72.5
68489;BME280;55481;48.764;8.936;2023-08-01T05:02:44;95710;;;17.7;73
68489;BME280;55481;48.764;8.936;2023-08-01T05:07:51;95740;;;17.7;73
68489;BME280;55481;48.764;8.936;2023-08-01T05:10:22;95740;;;17.7;73.5
68489;BME280;55481;48.764;8.936;2023-08-01T05:13:02;95730;;;17.7;73.5
68489;BME280;55481;48.764;8.936;2023-08-01T05:15:24;95710;;;17.7;73.5
68489;BME280;55481;48.764;8.936;2023-08-01T05:17:48;95710;;;17.6;73.5
68489;BME280;55481;48.764;8.936;2023-08-01T05:20:18;95710;;;17.6;73.5
68489;BME280;55481;48.764;8.936;2023-08-01T05:22:50;95720;;;17.5;74
68489;BME280;55481;48.764;8.936;2023-08-01T05:30:28;95720;;;17.6;73.5
68489;BME280;55481;48.764;8.936;2023-08-01T05:35:24;95710;;;17.8;73
68489;BME280;55481;48.764;8.936;2023-08-01T05:38:14;95700;;;17.9;73
68489;BME280;55481;48.764;8.936;2023-08-01T05:43:08;95700;;;18;73
68489;BME280;55481;48.764;8.936;2023-08-01T05:45:38;95700;;;18;73
68489;BME280;55481;48.764;8.936;2023-08-01T05:50:33;95710;;;18;73
68489;BME280;55481;48.764;8.936;2023-08-01T05:53:04;95710;;;18;73.5
68489;BME280;55481;48.764;8.936;2023-08-01T05:55:36;95720;;;17.9;73.5
68489;BME280;55481;48.764;8.936;2023-08-01T05:58:06;95710;;;18;73.5
68489;BME280;55481;48.764;8.936;2023-08-01T06:00:37;95710;;;18;73
68489;BME280;55481;48.764;8.936;2023-08-01T06:03:14;95720;;;18;73.5
68489;BME280;55481;48.764;8.936;2023-08-01T06:05:32;95720;;;18;73
68489;BME280;55481;48.764;8.936;2023-08-01T06:08:05;95730;;;18;73.5
68489;BME280;55481;48.764;8.936;2023-08-01T06:15:35;95730;;;17.9;73.5
68489;BME280;55481;48.764;8.936;2023-08-01T06:18:07;95740;;;17.8;74
68489;BME280;55481;48.764;8.936;2023-08-01T06:20:37;95720;;;17.7;74
68489;BME280;55481;48.764;8.936;2023-08-01T06:23:08;95740;;;17.5;74.5
68489;BME280;55481;48.764;8.936;2023-08-01T06:25:39;95760;;;17.4;74.5
68489;BME280;55481;48.764;8.936;2023-08-01T06:28:09;95760;;;17.4;74.5
68489;BME280;55481;48.764;8.936;2023-08-01T06:33:17;95770;;;17.4;74.5
68489;BME280;55481;48.764;8.936;2023-08-01T06:35:48;95780;;;17.4;74.5
68489;BME280;55481;48.764;8.936;2023-08-01T06:38:20;95780;;;17.2;75
68489;BME280;55481;48.764;8.936;2023-08-01T06:40:50;95780;;;16.9;75
68489;BME280;55481;48.764;8.936;2023-08-01T06:43:27;95780;;;16.7;75.5
68489;BME280;55481;48.764;8.936;2023-08-01T06:48:23;95760;;;16.7;75
68489;BME280;55481;48.764;8.936;2023-08-01T06:53:31;95750;;;16.9;74.5
68489;BME280;55481;48.764;8.936;2023-08-01T06:56:02;95740;;;17;74.5
68489;BME280;55481;48.764;8.936;2023-08-01T06:58:25;95750;;;17.1;74
68489;BME280;55481;48.764;8.936;2023-08-01T07:00:56;95750;;;17.1;74
68489;BME280;55481;48.764;8.936;2023-08-01T07:03:27;95760;;;17.1;74
68489;BME280;55481;48.764;8.936;2023-08-01T07:06:04;95760;;;17.1;74
68489;BME280;55481;48.764;8.936;2023-08-01T07:11:00;95750;;;17.1;74
68489;BME280;55481;48.764;8.936;2023-08-01T07:13:31;95750;;;17;74.5
68489;BME280;55481;48.764;8.936;2023-08-01T07:16:02;95750;;;16.6;75
68489;BME280;55481;48.764;8.936;2023-08-01T07:18:33;95770;;;16.4;75.5
68489;BME280;55481;48.764;8.936;2023-08-01T07:23:42;95770;;;16.3;75.5
68489;BME280;55481;48.764;8.936;2023-08-01T07:28:37;95780;;;16.3;75
68489;BME280;55481;48.764;8.936;2023-08-01T07:31:08;95780;;;15.7;76.5
68489;BME280;55481;48.764;8.936;2023-08-01T07:33:39;95770;;;15.4;77
68489;BME280;55481;48.764;8.936;2023-08-01T07:36:10;95770;;;15.3;77.5
68489;BME280;55481;48.764;8.936;2023-08-01T07:38:41;95770;;;15.4;77
68489;BME280;55481;48.764;8.936;2023-08-01T07:41:12;95770;;;15.3;77
68489;BME280;55481;48.764;8.936;2023-08-01T07:43:43;95770;;;15.3;76.5
68489;BME280;55481;48.764;8.936;2023-08-01T07:46:14;95760;;;15.4;76.5
68489;BME280;55481;48.764;8.936;2023-08-01T07:48:45;95770;;;15.4;76
68489;BME280;55481;48.764;8.936;2023-08-01T07:51:23;95770;;;15.5;76
68489;BME280;55481;48.764;8.936;2023-08-01T07:53:54;95780;;;15.6;75.5
68489;BME280;55481;48.764;8.936;2023-08-01T07:58:49;95770;;;15.7;75.5
68489;BME280;55481;48.764;8.936;2023-08-01T08:01:20;95770;;;15.8;75.5
68489;BME280;55481;48.764;8.936;2023-08-01T08:03:51;95770;;;15.9;75
68489;BME280;55481;48.764;8.936;2023-08-01T08:06:30;95760;;;15.9;75
68489;BME280;55481;48.764;8.936;2023-08-01T08:08:52;95760;;;16.1;75
68489;BME280;55481;48.764;8.936;2023-08-01T08:11:24;95760;;;16.2;75
68489;BME280;55481;48.764;8.936;2023-08-01T08:13:55;95760;;;16.2;75
68489;BME280;55481;48.764;8.936;2023-08-01T08:16:26;95760;;;16.1;75
68489;BME280;55481;48.764;8.936;2023-08-01T08:18:57;95750;;;16.1;75.5
68489;BME280;55481;48.764;8.936;2023-08-01T08:21:35;95760;;;16.1;75.5
68489;BME280;55481;48.764;8.936;2023-08-01T08:26:30;95760;;;16.3;75
68489;BME280;55481;48.764;8.936;2023-08-01T08:29:00;95760;;;16.5;74.5
68489;BME280;55481;48.764;8.936;2023-08-01T08:31:32;95770;;;16.6;74.5
68489;BME280;55481;48.764;8.936;2023-08-01T08:34:02;95770;;;16.7;74
68489;BME280;55481;48.764;8.936;2023-08-01T08:36:33;95770;;;16.8;74
68489;BME280;55481;48.764;8.936;2023-08-01T08:39:05;95760;;;16.8;74.5
68489;BME280;55481;48.764;8.936;2023-08-01T08:41:37;95770;;;17;74
68489;BME280;55481;48.764;8.936;2023-08-01T08:44:07;95760;;;17.3;73.5
68489;BME280;55481;48.764;8.936;2023-08-01T08:46:46;95770;;;17.4;73.5
68489;BME280;55481;48.764;8.936;2023-08-01T08:49:15;95770;;;17.4;73.5
68489;BME280;55481;48.764;8.936;2023-08-01T08:51:46;95760;;;17.8;72.5
68489;BME280;55481;48.764;8.936;2023-08-01T08:54:10;95770;;;17.7;73
68489;BME280;55481;48.764;8.936;2023-08-01T08:56:41;95780;;;17.6;74
68489;BME280;55481;48.764;8.936;2023-08-01T08:59:14;95770;;;17.6;74.5
68489;BME280;55481;48.764;8.936;2023-08-01T09:01:43;95770;;;17.4;75
68489;BME280;55481;48.764;8.936;2023-08-01T09:06:45;95780;;;17.2;75.5
68489;BME280;55481;48.764;8.936;2023-08-01T09:09:15;95780;;;17.1;75.5
68489;BME280;55481;48.764;8.936;2023-08-01T09:11:47;95780;;;17.2;75.5
68489;BME280;55481;48.764;8.936;2023-08-01T09:14:10;95780;;;17.3;75
68489;BME280;55481;48.764;8.936;2023-08-01T09:19:15;95780;;;17.4;75
68489;BME280;55481;48.764;8.936;2023-08-01T09:21:42;95770;;;17.5;74.5
68489;BME280;55481;48.764;8.936;2023-08-01T09:24:14;95780;;;17.6;74.5
68489;BME280;55481;48.764;8.936;2023-08-01T09:26:45;95780;;;17.6;74.5
68489;BME280;55481;48.764;8.936;2023-08-01T09:29:16;95790;;;17.7;74.5
68489;BME280;55481;48.764;8.936;2023-08-01T09:31:45;95790;;;17.8;74
68489;BME280;55481;48.764;8.936;2023-08-01T09:34:18;95790;;;18;73.5
68489;BME280;55481;48.764;8.936;2023-08-01T09:36:48;95790;;;18.2;73
68489;BME280;55481;48.764;8.936;2023-08-01T09:39:18;95800;;;18.4;73
68489;BME280;55481;48.764;8.936;2023-08-01T09:51:52;95780;;;18.4;74
68489;BME280;55481;48.764;8.936;2023-08-01T09:54:30;95780;;;18.5;74.5
68489;BME280;55481;48.764;8.936;2023-08-01T09:57:06;95790;;;18.5;74
68489;BME280;55481;48.764;8.936;2023-08-01T09:59:31;95800;;;18.5;74
68489;BME280;55481;48.764;8.936;2023-08-01T10:06:57;95790;;;18.4;74.5
68489;BME280;55481;48.764;8.936;2023-08-01T10:09:27;95790;;;18.5;74.5
68489;BME280;55481;48.764;8.936;2023-08-01T10:11:58;95790;;;18.6;74.5
68489;BME280;55481;48.764;8.936;2023-08-01T10:14:38;95790;;;18.8;74
68489;BME280;55481;48.764;8.936;2023-08-01T10:19:36;95810;;;18.4;75
68489;BME280;55481;48.764;8.936;2023-08-01T10:22:11;95810;;;18.3;75.5
68489;BME280;55481;48.764;8.936;2023-08-01T10:24:38;95820;;;18.3;75.5
68489;BME280;55481;48.764;8.936;2023-08-01T10:34:35;95810;;;19.8;72
68489;BME280;55481;48.764;8.936;2023-08-01T10:37:05;95810;;;19.9;71.5
68489;BME280;55481;48.764;8.936;2023-08-01T10:39:36;95820;;;19.9;72
68489;BME280;55481;48.764;8.936;2023-08-01T10:42:14;95820;;;20;72
68489;BME280;55481;48.764;8.936;2023-08-01T10:44:45;95830;;;19.9;72.5
68489;BME280;55481;48.764;8.936;2023-08-01T10:47:24;95830;;;20.2;72
68489;BME280;55481;48.764;8.936;2023-08-01T10:49:43;95830;;;20.5;71
68489;BME280;55481;48.764;8.936;2023-08-01T10:52:19;95840;;;20.1;72
68489;BME280;55481;48.764;8.936;2023-08-01T10:54:42;95850;;;20.1;73
68489;BME280;55481;48.764;8.936;2023-08-01T11:02:19;95850;;;19.9;73.5
68489;BME280;55481;48.764;8.936;2023-08-01T11:04:54;95840;;;19.5;74.5
68489;BME280;55481;48.764;8.936;2023-08-01T11:07:17;95840;;;19.6;74.5
68489;BME280;55481;48.764;8.936;2023-08-01T11:09:46;95850;;;20.2;73
68489;BME280;55481;48.764;8.936;2023-08-01T11:12:31;95840;;;20.4;72.5
68489;BME280;55481;48.764;8.936;2023-08-01T11:14:58;95840;;;20.7;71.5
68489;BME280;55481;48.764;8.936;2023-08-01T11:17:26;95840;;;20.7;72
68489;BME280;55481;48.764;8.936;2023-08-01T11:20:00;95840;;;20.6;72
68489;BME280;55481;48.764;8.936;2023-08-01T11:22:23;95850;;;20.7;72
68489;BME280;55481;48.764;8.936;2023-08-01T11:29:54;95850;;;21.3;71
68489;BME280;55481;48.764;8.936;2023-08-01T11:32:39;95860;;;21.4;71
68489;BME280;55481;48.764;8.936;2023-08-01T11:34:55;95850;;;21.3;71
68489;BME280;55481;48.764;8.936;2023-08-01T11:37:25;95870;;;20.7;73
68489;BME280;55481;48.764;8.936;2023-08-01T11:39:56;95860;;;20.5;73.5
68489;BME280;55481;48.764;8.936;2023-08-01T11:42:30;95860;;;20.7;73
68489;BME280;55481;48.764;8.936;2023-08-01T11:45:11;95860;;;21.7;71
68489;BME280;55481;48.764;8.936;2023-08-01T11:47:35;95860;;;21.6;70.5
68489;BME280;55481;48.764;8.936;2023-08-01T11:50:06;95870;;;21;72
68489;BME280;55481;48.764;8.936;2023-08-01T12:02:35;95870;;;22.6;70
68489;BME280;55481;48.764;8.936;2023-08-01T12:05:05;95860;;;23.3;68.5
68489;BME280;55481;48.764;8.936;2023-08-01T12:07:36;95870;;;23.8;67.5
68489;BME280;55481;48.764;8.936;2023-08-01T12:10:06;95870;;;23.8;67.5
68489;BME280;55481;48.764;8.936;2023-08-01T12:12:43;95890;;;22;72.5
68489;BME280;55481;48.764;8.936;2023-08-01T12:15:07;95890;;;21.4;74.5
68489;BME280;55481;48.764;8.936;2023-08-01T12:17:39;95890;;;20.7;75.5
68489;BME280;55481;48.764;8.936;2023-08-01T12:28:00;95870;;;22.7;71
68489;BME280;55481;48.764;8.936;2023-08-01T12:30:39;95860;;;24.1;67.5
68489;BME280;55481;48.764;8.936;2023-08-01T12:32:54;95880;;;22.9;70.5
68489;BME280;55481;48.764;8.936;2023-08-01T12:37:49;95880;;;22.4;72
68489;BME280;55481;48.764;8.936;2023-08-01T12:40:19;95870;;;23.7;70
68489;BME280;55481;48.764;8.936;2023-08-01T12:42:50;95860;;;24.8;67.5
68489;BME280;55481;48.764;8.936;2023-08-01T12:45:21;95850;;;24.9;67.5
68489;BME280;55481;48.764;8.936;2023-08-01T12:47:52;95860;;;25.2;67.5
68489;BME280;55481;48.764;8.936;2023-08-01T12:50:29;95860;;;25.2;68
68489;BME280;55481;48.764;8.936;2023-08-01T12:55:25;95870;;;25.9;67
68489;BME280;55481;48.764;8.936;2023-08-01T12:58:15;95870;;;25.8;68
68489;BME280;55481;48.764;8.936;2023-08-01T13:03:03;95880;;;25.8;68.5
68489;BME280;55481;48.764;8.936;2023-08-01T13:05:34;95880;;;25.8;69
68489;BME280;55481;48.764;8.936;2023-08-01T13:07:57;95890;;;25.3;70
68489;BME280;55481;48.764;8.936;2023-08-01T13:10:31;95900;;;23.4;74
68489;BME280;55481;48.764;8.936;2023-08-01T13:12:58;95890;;;23.3;75
68489;BME280;55481;48.764;8.936;2023-08-01T13:17:53;95890;;;23.6;72.5
68489;BME280;55481;48.764;8.936;2023-08-01T13:25:26;95910;;;21.9;76
68489;BME280;55481;48.764;8.936;2023-08-01T13:27:57;95910;;;22.1;74.5
68489;BME280;55481;48.764;8.936;2023-08-01T13:30:27;95910;;;21.8;74.5
68489;BME280;55481;48.764;8.936;2023-08-01T13:32:58;95910;;;21.6;75
68489;BME280;55481;48.764;8.936;2023-08-01T13:35:29;95900;;;23.5;71
68489;BME280;55481;48.764;8.936;2023-08-01T13:38:06;95890;;;25.3;66.5
68489;BME280;55481;48.764;8.936;2023-08-01T13:40:37;95890;;;25.9;65
68489;BME280;55481;48.764;8.936;2023-08-01T13:43:08;95890;;;26.2;65.5
68489;BME280;55481;48.764;8.936;2023-08-01T13:48:06;95880;;;26.6;65
68489;BME280;55481;48.764;8.936;2023-08-01T13:53:05;95880;;;26.8;65
68489;BME280;55481;48.764;8.936;2023-08-01T13:55:36;95890;;;27;65
68489;BME280;55481;48.764;8.936;2023-08-01T13:58:07;95880;;;27.3;64.5
68489;BME280;55481;48.764;8.936;2023-08-01T14:00:37;95880;;;27.2;64.5
68489;BME280;55481;48.764;8.936;2023-08-01T14:03:08;95870;;;27;65.5
68489;BME280;55481;48.764;8.936;2023-08-01T14:05:46;95870;;;26.9;65.5
68489;BME280;55481;48.764;8.936;2023-08-01T14:08:17;95870;;;27.2;64.5
68489;BME280;55481;48.764;8.936;2023-08-01T14:10:47;95860;;;27.6;63.5
68489;BME280;55481;48.764;8.936;2023-08-01T14:13:12;95860;;;28.1;62.5
68489;BME280;55481;48.764;8.936;2023-08-01T14:23:15;95870;;;27.1;65
68489;BME280;55481;48.764;8.936;2023-08-01T14:25:46;95870;;;27.5;64
68489;BME280;55481;48.764;8.936;2023-08-01T14:28:22;95870;;;27.6;63.5
68489;BME280;55481;48.764;8.936;2023-08-01T14:30:48;95870;;;27.8;63
68489;BME280;55481;48.764;8.936;2023-08-01T14:33:18;95880;;;27.8;62.5
68489;BME280;55481;48.764;8.936;2023-08-01T14:38:26;95890;;;25.3;68.5
68489;BME280;55481;48.764;8.936;2023-08-01T14:41:01;95890;;;24.6;70
68489;BME280;55481;48.764;8.936;2023-08-01T14:43:28;95880;;;26.8;64.5
68489;BME280;55481;48.764;8.936;2023-08-01T14:48:30;95890;;;28.1;60.5
68489;BME280;55481;48.764;8.936;2023-08-01T14:51:07;95890;;;27.4;62
68489;BME280;55481;48.764;8.936;2023-08-01T14:58:52;95880;;;28.8;58.5
68489;BME280;55481;48.764;8.936;2023-08-01T15:01:11;95900;;;26.4;63.5
68489;BME280;55481;48.764;8.936;2023-08-01T15:06:05;95910;;;23.3;71
68489;BME280;55481;48.764;8.936;2023-08-01T15:08:35;95920;;;23.3;71
68489;BME280;55481;48.764;8.936;2023-08-01T15:11:05;95910;;;23.7;68.5
68489;BME280;55481;48.764;8.936;2023-08-01T15:13:36;95920;;;23.1;70
68489;BME280;55481;48.764;8.936;2023-08-01T15:21:22;95920;;;24;66.5
68489;BME280;55481;48.764;8.936;2023-08-01T15:23:58;95910;;;24.1;66
68489;BME280;55481;48.764;8.936;2023-08-01T15:26:16;95930;;;24.1;65.5
68489;BME280;55481;48.764;8.936;2023-08-01T15:28:46;95930;;;23.9;66
68489;BME280;55481;48.764;8.936;2023-08-01T15:31:16;95930;;;23.4;67
68489;BME280;55481;48.764;8.936;2023-08-01T15:33:41;95940;;;22.8;68.5
68489;BME280;55481;48.764;8.936;2023-08-01T15:36:12;95940;;;22.9;68
68489;BME280;55481;48.764;8.936;2023-08-01T15:38:42;95940;;;22.9;68
68489;BME280;55481;48.764;8.936;2023-08-01T15:48:38;95940;;;23.1;67
68489;BME280;55481;48.764;8.936;2023-08-01T15:51:09;95940;;;22.8;67.5
68489;BME280;55481;48.764;8.936;2023-08-01T15:53:40;95950;;;22.8;67.5
68489;BME280;55481;48.764;8.936;2023-08-01T15:56:10;95940;;;22.7;67.5
68489;BME280;55481;48.764;8.936;2023-08-01T16:01:18;95940;;;22.4;68
68489;BME280;55481;48.764;8.936;2023-08-01T16:03:49;95940;;;22.2;68.5
68489;BME280;55481;48.764;8.936;2023-08-01T16:06:21;95940;;;21.9;69
68489;BME280;55481;48.764;8.936;2023-08-01T16:08:51;95940;;;22.3;68
68489;BME280;55481;48.764;8.936;2023-08-01T16:11:23;95940;;;22.3;68
68489;BME280;55481;48.764;8.936;2023-08-01T16:14:01;95940;;;22.2;68
68489;BME280;55481;48.764;8.936;2023-08-01T16:18:55;95950;;;22.4;67
68489;BME280;55481;48.764;8.936;2023-08-01T16:21:30;95960;;;22.2;67.5
68489;BME280;55481;48.764;8.936;2023-08-01T16:23:58;95950;;;22.1;68
68489;BME280;55481;48.764;8.936;2023-08-01T16:26:28;95960;;;21.9;68.5
68489;BME280;55481;48.764;8.936;2023-08-01T16:28:59;95970;;;22;68
68489;BME280;55481;48.764;8.936;2023-08-01T16:31:30;95960;;;21.9;68
68489;BME280;55481;48.764;8.936;2023-08-01T16:33:55;95970;;;21.7;68.5
68489;BME280;55481;48.764;8.936;2023-08-01T16:43:58;95980;;;21.4;68.5
68489;BME280;55481;48.764;8.936;2023-08-01T16:46:28;95990;;;21.2;69
68489;BME280;55481;48.764;8.936;2023-08-01T16:48:59;95980;;;21.1;69
68489;BME280;55481;48.764;8.936;2023-08-01T16:51:29;95980;;;21.2;69
68489;BME280;55481;48.764;8.936;2023-08-01T16:54:00;95980;;;21.2;68.5
68489;BME280;55481;48.764;8.936;2023-08-01T16:59:07;95990;;;21;69
68489;BME280;55481;48.764;8.936;2023-08-01T17:01:39;95990;;;20.9;69
68489;BME280;55481;48.764;8.936;2023-08-01T17:06:34;95990;;;20.9;68.5
68489;BME280;55481;48.764;8.936;2023-08-01T17:11:35;95990;;;20.8;68.5
68489;BME280;55481;48.764;8.936;2023-08-01T17:14:06;95990;;;20.9;68.5
68489;BME280;55481;48.764;8.936;2023-08-01T17:16:37;96000;;;20.9;68
68489;BME280;55481;48.764;8.936;2023-08-01T17:19:08;96000;;;21;68
68489;BME280;55481;48.764;8.936;2023-08-01T17:21:39;96000;;;20.9;68
68489;BME280;55481;48.764;8.936;2023-08-01T17:24:16;96010;;;20.8;68.5
68489;BME280;55481;48.764;8.936;2023-08-01T17:26:47;96000;;;20.7;68.5
68489;BME280;55481;48.764;8.936;2023-08-01T17:29:25;96000;;;20.7;68.5
68489;BME280;55481;48.764;8.936;2023-08-01T17:37:10;96010;;;20.5;68.5
68489;BME280;55481;48.764;8.936;2023-08-01T17:39:27;96020;;;20.5;68.5
68489;BME280;55481;48.764;8.936;2023-08-01T17:44:22;96030;;;20.4;68.5
68489;BME280;55481;48.764;8.936;2023-08-01T17:46:52;96030;;;20.3;68.5
68489;BME280;55481;48.764;8.936;2023-08-01T17:49:24;96030;;;20.3;69
68489;BME280;55481;48.764;8.936;2023-08-01T17:51:48;96030;;;20.1;69
68489;BME280;55481;48.764;8.936;2023-08-01T17:59:20;96050;;;20;69
68489;BME280;55481;48.764;8.936;2023-08-01T18:01:51;96050;;;20;69
68489;BME280;55481;48.764;8.936;2023-08-01T18:04:22;96050;;;19.9;69
68489;BME280;55481;48.764;8.936;2023-08-01T18:09:30;96050;;;19.9;69
68489;BME280;55481;48.764;8.936;2023-08-01T18:12:00;96060;;;19.8;69
68489;BME280;55481;48.764;8.936;2023-08-01T18:16:55;96060;;;19.5;69.5
68489;BME280;55481;48.764;8.936;2023-08-01T18:19:26;96050;;;19.4;69.5
68489;BME280;55481;48.764;8.936;2023-08-01T18:26:59;96070;;;19.1;70
68489;BME280;55481;48.764;8.936;2023-08-01T18:29:30;96070;;;19.1;70
68489;BME280;55481;48.764;8.936;2023-08-01T18:32:00;96080;;;19;70
68489;BME280;55481;48.764;8.936;2023-08-01T18:34:44;96080;;;19;70
68489;BME280;55481;48.764;8.936;2023-08-01T18:37:15;96080;;;18.9;70
68489;BME280;55481;48.764;8.936;2023-08-01T18:39:45;96080;;;18.8;70
68489;BME280;55481;48.764;8.936;2023-08-01T18:44:39;96090;;;18.7;70
68489;BME280;55481;48.764;8.936;2023-08-01T18:47:10;96090;;;18.6;70
68489;BME280;55481;48.764;8.936;2023-08-01T18:49:40;96090;;;18.5;70
68489;BME280;55481;48.764;8.936;2023-08-01T18:52:18;96110;;;18.5;70
68489;BME280;55481;48.764;8.936;2023-08-01T18:54:49;96100;;;18.5;70
68489;BME280;55481;48.764;8.936;2023-08-01T18:57:13;96110;;;18.5;70
68489;BME280;55481;48.764;8.936;2023-08-01T18:59:51;96110;;;18.5;70
68489;BME280;55481;48.764;8.936;2023-08-01T19:02:15;96110;;;18.5;70